createdAt,value
2023-01-11T00:03:07.186Z,78.36
2023-01-11T00:06:12.186Z,78.76
2023-01-11T00:09:16.342Z,78.73
2023-01-11T00:12:19.208Z,79.11
2023-01-11T00:15:21.996Z,79.44
2023-01-11T00:18:24.888Z,79.46
2023-01-11T00:21:29.068Z,79.56
2023-01-11T00:24:31.941Z,80.08
2023-01-11T00:27:34.721Z,80.27
2023-01-11T00:30:37.468Z,80.36
2023-01-11T00:33:40.424Z,80.34
2023-01-11T00:36:44.658Z,80.71
2023-01-11T00:39:47.450Z,81.10
2023-01-11T00:43:07.714Z,81.14
2023-01-11T00:46:27.942Z,81.45
2023-01-11T00:49:31.472Z,81.48
2023-01-11T00:52:35.695Z,81.79
2023-01-11T00:55:38.737Z,81.84
2023-01-11T00:58:41.591Z,81.76
2023-01-11T01:01:44.544Z,82.01
2023-01-11T01:04:47.426Z,81.80
2023-01-11T01:07:51.697Z,81.98
2023-01-11T01:10:54.500Z,82.00
2023-01-11T01:14:14.875Z,82.06
2023-01-11T01:17:17.761Z,82.17
2023-01-11T01:20:21.210Z,82.25
2023-01-11T01:23:25.475Z,82.41
2023-01-11T01:26:28.406Z,82.25
2023-01-11T01:29:31.171Z,82.10
2023-01-11T01:32:33.952Z,81.92
2023-01-11T01:35:38.767Z,82.34
2023-01-11T01:38:42.884Z,82.24
2023-01-11T01:41:45.638Z,82.43
2023-01-11T01:44:57.957Z,82.47
2023-01-11T01:48:02.773Z,82.45
2023-01-11T01:51:08.197Z,82.62
2023-01-11T01:54:15.940Z,82.48
2023-01-11T01:57:24.174Z,82.71
2023-01-11T02:00:27.195Z,83.25
2023-01-11T02:03:30.558Z,83.25
2023-01-11T02:06:33.720Z,83.44
2023-01-11T02:09:45.411Z,83.60
2023-01-11T02:12:52.449Z,83.65
2023-01-11T02:16:08.736Z,83.74
2023-01-11T02:19:22.110Z,83.92
2023-01-11T02:22:52.568Z,83.89
2023-01-11T02:26:48.413Z,83.67
2023-01-11T02:30:01.953Z,83.83
2023-01-11T02:33:13.691Z,83.88
2023-01-11T02:36:29.342Z,84.28
2023-01-11T02:39:44.443Z,84.08
2023-01-11T02:43:10.223Z,84.15
2023-01-11T02:46:21.957Z,84.20
2023-01-11T02:49:34.723Z,84.42
2023-01-11T02:52:43.825Z,84.51
2023-01-11T02:55:51.876Z,84.73
2023-01-11T02:58:57.919Z,84.64
2023-01-11T03:02:02.380Z,85.14
2023-01-11T03:05:12.883Z,85.18
2023-01-11T03:08:57.380Z,84.98
2023-01-11T03:12:29.072Z,85.36
2023-01-11T03:16:08.675Z,84.96
2023-01-11T03:19:23.443Z,84.96
2023-01-11T03:22:32.746Z,85.62
2023-01-11T03:25:46.178Z,85.45
2023-01-11T03:28:55.001Z,85.34
2023-01-11T03:32:09.270Z,85.83
2023-01-11T03:35:22.594Z,85.94
2023-01-11T03:38:31.731Z,85.89
2023-01-11T03:41:39.968Z,86.21
2023-01-11T03:44:48.147Z,86.18
2023-01-11T03:47:52.627Z,86.41
2023-01-11T03:50:59.011Z,86.32
2023-01-11T03:54:04.916Z,86.56
2023-01-11T03:57:14.230Z,86.56
2023-01-11T04:00:17.715Z,86.86
2023-01-11T04:03:20.530Z,86.85
2023-01-11T04:06:25.630Z,86.75
2023-01-11T04:09:28.493Z,87.15
2023-01-11T04:12:31.317Z,86.99
2023-01-11T04:15:35.899Z,87.11
2023-01-11T04:18:38.767Z,87.08
2023-01-11T04:21:42.947Z,87.08
2023-01-11T04:24:45.737Z,87.20
2023-01-11T04:27:48.481Z,87.22
2023-01-11T04:30:51.247Z,87.15
2023-01-11T04:33:54.141Z,87.11
2023-01-11T04:36:58.652Z,87.25
2023-01-11T04:40:01.436Z,87.45
2023-01-11T04:43:04.251Z,86.98
2023-01-11T04:46:07.387Z,87.25
2023-01-11T04:49:10.324Z,87.50
2023-01-11T04:52:16.433Z,87.82
2023-01-11T04:55:19.938Z,87.47
2023-01-11T04:58:22.757Z,87.84
2023-01-11T05:01:25.536Z,88.20
2023-01-11T05:04:28.531Z,88.03
2023-01-11T05:07:32.745Z,88.48
2023-01-11T05:10:35.647Z,88.79
2023-01-11T05:13:45.201Z,88.48
2023-01-11T05:16:48.216Z,88.69
2023-01-11T05:19:50.987Z,88.81
2023-01-11T05:22:55.105Z,89.00
2023-01-11T05:25:57.845Z,89.37
2023-01-11T05:29:01.938Z,89.41
2023-01-11T05:32:04.877Z,89.66
2023-01-11T05:35:10.146Z,90.09
2023-01-11T05:38:14.276Z,90.24
2023-01-11T05:41:18.274Z,90.61
2023-01-11T05:44:38.331Z,90.98
2023-01-11T05:47:41.312Z,91.04
2023-01-11T05:50:44.204Z,91.26
2023-01-11T05:53:48.533Z,91.49
2023-01-11T05:56:51.308Z,91.75
2023-01-11T05:59:54.090Z,92.00
2023-01-11T06:03:21.628Z,91.85
2023-01-11T06:06:24.594Z,92.22
2023-01-11T06:09:28.981Z,92.09
2023-01-11T06:12:31.908Z,92.11
2023-01-11T06:15:34.809Z,92.10
2023-01-11T06:18:44.461Z,92.08
2023-01-11T06:21:47.567Z,92.46
2023-01-11T06:24:51.883Z,92.17
2023-01-11T06:27:54.945Z,92.34
2023-01-11T06:30:59.555Z,92.44
2023-01-11T06:34:02.767Z,92.41
2023-01-11T06:37:06.447Z,92.47
2023-01-11T06:40:16.027Z,92.80
2023-01-11T06:43:18.907Z,92.78
2023-01-11T06:46:22.273Z,92.90
2023-01-11T06:49:25.111Z,92.91
2023-01-11T06:52:27.829Z,93.00
2023-01-11T06:55:36.718Z,92.88
2023-01-11T06:58:41.446Z,93.11
2023-01-11T07:01:46.040Z,93.22
2023-01-11T07:04:49.224Z,93.09
2023-01-11T07:07:52.406Z,93.50
2023-01-11T07:10:56.653Z,93.61
2023-01-11T07:13:59.702Z,93.62
2023-01-11T07:18:09.945Z,93.79
2023-01-11T07:21:42.799Z,93.92
2023-01-11T07:24:48.547Z,93.71
2023-01-11T07:28:00.706Z,94.02
2023-01-11T07:31:09.005Z,94.23
2023-01-11T07:34:12.992Z,94.12
2023-01-11T07:37:28.447Z,94.44
2023-01-11T07:40:32.484Z,94.40
2023-01-11T07:43:35.717Z,94.42
2023-01-11T07:46:43.645Z,94.23
2023-01-11T07:49:48.754Z,94.11
2023-01-11T07:52:52.206Z,94.17
2023-01-11T07:55:56.505Z,94.18
2023-01-11T07:59:00.972Z,93.78
2023-01-11T08:02:03.814Z,94.14
2023-01-11T08:05:07.521Z,94.00
2023-01-11T08:08:10.620Z,93.89
2023-01-11T08:11:48.750Z,93.59
2023-01-11T08:14:53.345Z,93.74
2023-01-11T08:17:56.154Z,93.88
2023-01-11T08:21:07.540Z,93.55
2023-01-11T08:24:10.539Z,93.50
2023-01-11T08:27:14.662Z,93.87
2023-01-11T08:30:19.785Z,93.83
2023-01-11T08:33:22.600Z,93.79
2023-01-11T08:36:28.678Z,93.97
2023-01-11T08:39:31.595Z,94.09
2023-01-11T08:42:34.393Z,93.90
2023-01-11T08:45:38.726Z,94.06
2023-01-11T08:48:42.121Z,93.99
2023-01-11T08:51:45.258Z,93.65
2023-01-11T08:54:48.275Z,94.11
2023-01-11T08:57:51.282Z,94.14
2023-01-11T09:00:59.236Z,94.23
2023-01-11T09:04:19.165Z,94.42
2023-01-11T09:07:26.456Z,94.32
2023-01-11T09:10:29.871Z,94.36
2023-01-11T09:13:32.581Z,94.38
2023-01-11T09:16:40.847Z,94.26
2023-01-11T09:19:43.497Z,94.17
2023-01-11T09:22:52.741Z,94.40
2023-01-11T09:25:59.936Z,94.24
2023-01-11T09:29:03.072Z,94.09
2023-01-11T09:32:07.412Z,94.33
2023-01-11T09:35:11.221Z,94.43
2023-01-11T09:38:13.876Z,94.24
2023-01-11T09:41:36.160Z,94.16
2023-01-11T09:44:49.737Z,93.69
2023-01-11T09:48:00.994Z,93.46
2023-01-11T09:51:05.135Z,93.48
2023-01-11T09:54:11.759Z,93.38
2023-01-11T09:57:23.920Z,93.47
2023-01-11T10:00:45.343Z,93.47
2023-01-11T10:04:17.905Z,93.62
2023-01-11T10:07:38.582Z,94.01
2023-01-11T10:18:29.209Z,94.59
2023-01-11T10:18:31.229Z,94.42
2023-01-11T10:21:46.440Z,94.61
2023-01-11T10:24:54.024Z,95.10
2023-01-11T10:28:03.270Z,95.24
2023-01-11T10:31:28.739Z,94.94
2023-01-11T10:34:51.414Z,95.05
2023-01-11T10:38:10.219Z,94.76
2023-01-11T10:41:26.071Z,95.11
2023-01-11T10:44:42.290Z,94.77
2023-01-11T10:47:54.841Z,94.99
2023-01-11T10:51:04.621Z,95.23
2023-01-11T10:54:16.774Z,94.79
2023-01-11T10:57:26.372Z,95.13
2023-01-11T11:00:36.526Z,95.01
2023-01-11T11:03:49.888Z,94.75
2023-01-11T11:07:02.331Z,94.62
2023-01-11T11:10:18.876Z,94.60
2023-01-11T11:13:42.533Z,94.50
2023-01-11T11:16:59.370Z,94.75
2023-01-11T11:20:15.133Z,94.62
2023-01-11T11:23:21.918Z,94.73
2023-01-11T11:26:32.111Z,94.44
2023-01-11T11:29:42.618Z,94.19
2023-01-11T11:32:58.231Z,94.36
2023-01-11T11:36:04.932Z,94.75
2023-01-11T11:39:12.486Z,94.64
2023-01-11T11:42:18.532Z,94.49
2023-01-11T11:45:21.337Z,94.57
2023-01-11T11:48:25.199Z,94.38
2023-01-11T11:51:28.583Z,94.46
2023-01-11T11:54:34.883Z,94.23
2023-01-11T11:57:42.722Z,94.49
2023-01-11T12:00:47.340Z,94.49
2023-01-11T12:03:51.903Z,94.26
2023-01-11T12:07:08.438Z,94.16
2023-01-11T12:10:16.182Z,93.89
2023-01-11T12:13:32.386Z,93.81
2023-01-11T12:16:39.250Z,93.50
2023-01-11T12:19:47.801Z,93.36
2023-01-11T12:22:51.031Z,93.30
2023-01-11T12:26:20.982Z,93.28
2023-01-11T12:29:46.523Z,92.92
2023-01-11T12:33:25.627Z,93.18
2023-01-11T12:36:38.008Z,92.81
2023-01-11T12:39:50.927Z,92.79
2023-01-11T12:43:17.784Z,92.80
2023-01-11T12:46:36.195Z,92.73
2023-01-11T12:49:46.986Z,92.76
2023-01-11T12:53:03.957Z,92.77
2023-01-11T12:56:24.773Z,92.65
2023-01-11T12:59:47.348Z,92.43
2023-01-11T13:03:08.262Z,92.13
2023-01-11T13:06:19.663Z,92.40
2023-01-11T13:09:31.261Z,92.07
2023-01-11T13:12:42.355Z,91.67
2023-01-11T13:15:57.635Z,91.24
2023-01-11T13:19:08.047Z,91.27
2023-01-11T13:22:18.874Z,91.23
2023-01-11T13:25:25.032Z,90.85
2023-01-11T13:28:32.131Z,90.68
2023-01-11T13:31:38.747Z,91.03
2023-01-11T13:34:48.256Z,90.91
2023-01-11T13:37:58.024Z,90.65
2023-01-11T13:41:10.862Z,90.95
2023-01-11T13:44:19.429Z,90.46
2023-01-11T13:47:29.617Z,90.71
2023-01-11T13:50:53.004Z,90.61
2023-01-11T13:54:02.113Z,90.26
2023-01-11T13:57:08.141Z,90.39
2023-01-11T14:00:24.943Z,90.05
2023-01-11T14:03:33.493Z,90.46
2023-01-11T14:06:59.888Z,90.39
2023-01-11T14:10:19.111Z,90.34
2023-01-11T14:14:18.039Z,90.45
2023-01-11T14:17:38.358Z,90.09
2023-01-11T14:20:47.191Z,89.88
2023-01-11T14:23:52.807Z,90.08
2023-01-11T14:27:17.346Z,89.91
2023-01-11T14:30:35.062Z,89.71
2023-01-11T14:34:06.276Z,90.13
2023-01-11T14:37:34.586Z,89.11
2023-01-11T14:40:49.088Z,89.57
2023-01-11T14:44:09.834Z,88.92
2023-01-11T14:47:42.251Z,89.33
2023-01-11T14:51:05.707Z,89.31
2023-01-11T14:54:12.845Z,89.24
2023-01-11T14:57:40.744Z,89.28
2023-01-11T15:01:11.138Z,89.46
2023-01-11T15:04:23.083Z,89.37
2023-01-11T15:07:34.461Z,89.60
2023-01-11T15:10:52.270Z,89.34
2023-01-11T15:13:59.725Z,90.11
2023-01-11T15:17:22.181Z,89.86
2023-01-11T15:20:26.532Z,89.83
2023-01-11T15:23:35.652Z,90.25
2023-01-11T15:26:49.435Z,90.07
2023-01-11T15:29:57.986Z,90.41
2023-01-11T15:33:45.485Z,90.31
2023-01-11T15:37:17.516Z,90.61
2023-01-11T15:40:21.874Z,90.51
2023-01-11T15:43:56.693Z,90.99
2023-01-11T15:47:32.098Z,91.52
2023-01-11T15:51:04.573Z,91.16
2023-01-11T15:54:23.096Z,91.49
2023-01-11T15:58:15.332Z,91.51
2023-01-11T16:01:23.711Z,91.23
2023-01-11T16:04:33.166Z,91.46
2023-01-11T16:07:44.049Z,91.16
2023-01-11T16:10:55.932Z,91.00
2023-01-11T16:14:15.427Z,91.26
2023-01-11T16:17:22.241Z,91.17
2023-01-11T16:20:29.005Z,91.02
2023-01-11T16:23:42.578Z,91.48
2023-01-11T16:26:50.643Z,91.60
2023-01-11T16:29:56.073Z,91.95
2023-01-11T16:33:15.391Z,91.78
2023-01-11T16:36:21.302Z,91.83
2023-01-11T16:39:26.699Z,91.68
2023-01-11T16:42:34.795Z,91.58
2023-01-11T16:45:41.761Z,91.60
2023-01-11T16:48:46.933Z,91.27
2023-01-11T16:51:51.962Z,91.17
2023-01-11T16:54:55.358Z,91.62
2023-01-11T16:58:01.089Z,91.35
2023-01-11T17:01:06.448Z,91.16
2023-01-11T17:04:30.189Z,91.07
2023-01-11T17:07:37.337Z,91.18
2023-01-11T17:10:40.291Z,90.89
2023-01-11T17:14:06.692Z,90.84
2023-01-11T17:17:13.974Z,90.46
2023-01-11T17:20:20.653Z,90.30
2023-01-11T17:23:24.836Z,90.33
2023-01-11T17:26:31.159Z,90.02
2023-01-11T17:29:36.743Z,90.14
2023-01-11T17:32:43.623Z,90.13
2023-01-11T17:35:50.939Z,90.11
2023-01-11T17:38:55.908Z,90.59
2023-01-11T17:42:17.589Z,90.43
2023-01-11T17:45:22.732Z,90.81
2023-01-11T17:48:27.709Z,90.99
2023-01-11T17:51:41.163Z,90.82
2023-01-11T17:55:17.933Z,90.63
2023-01-11T17:58:26.162Z,90.54
2023-01-11T18:01:29.273Z,90.56
2023-01-11T18:04:32.760Z,90.35
2023-01-11T18:07:43.308Z,90.63
2023-01-11T18:10:54.500Z,90.46
2023-01-11T18:14:02.880Z,90.41
2023-01-11T18:17:26.233Z,89.97
2023-01-11T18:20:38.285Z,89.74
2023-01-11T18:23:40.961Z,89.89
2023-01-11T18:26:47.586Z,89.80
2023-01-11T18:29:58.929Z,89.35
2023-01-11T18:33:03.939Z,89.37
2023-01-11T18:36:21.222Z,89.44
2023-01-11T18:39:24.123Z,88.44
2023-01-11T18:42:34.760Z,89.04
2023-01-11T18:45:37.845Z,89.24
2023-01-11T18:48:47.822Z,88.83
2023-01-11T18:51:50.446Z,89.32
2023-01-11T18:54:57.255Z,89.32
2023-01-11T18:58:01.953Z,89.55
2023-01-11T19:01:07.831Z,89.64
2023-01-11T19:04:11.196Z,89.47
2023-01-11T19:07:15.230Z,89.17
2023-01-11T19:10:20.246Z,89.00
2023-01-11T19:13:31.566Z,89.09
2023-01-11T19:16:34.214Z,88.93
2023-01-11T19:19:36.943Z,88.68
2023-01-11T19:22:42.626Z,88.03
2023-01-11T19:25:45.328Z,88.00
2023-01-11T19:28:49.516Z,87.55
2023-01-11T19:31:55.473Z,86.93
2023-01-11T19:35:00.264Z,86.18
2023-01-11T19:38:03.487Z,85.67
2023-01-11T19:41:08.279Z,85.41
2023-01-11T19:44:12.343Z,85.79
2023-01-11T19:47:16.294Z,85.95
2023-01-11T19:50:22.041Z,85.32
2023-01-11T19:53:24.885Z,85.27
2023-01-11T19:56:30.771Z,84.81
2023-01-11T19:59:34.927Z,84.53
2023-01-11T20:02:37.667Z,84.00
2023-01-11T20:05:40.566Z,83.91
2023-01-11T20:08:43.883Z,84.32
2023-01-11T20:11:49.133Z,84.56
2023-01-11T20:14:56.957Z,84.71
2023-01-11T20:18:00.301Z,84.51
2023-01-11T20:21:06.248Z,83.90
2023-01-11T20:24:13.751Z,83.96
2023-01-11T20:27:16.646Z,84.01
2023-01-11T20:30:28.405Z,83.90
2023-01-11T20:33:31.159Z,83.99
2023-01-11T20:36:34.180Z,83.81
2023-01-11T20:39:40.109Z,83.95
2023-01-11T20:42:43.442Z,83.74
2023-01-11T20:45:57.739Z,83.78
2023-01-11T20:49:01.473Z,84.15
2023-01-11T20:52:04.473Z,83.77
2023-01-11T20:55:10.975Z,84.11
2023-01-11T20:58:14.391Z,84.32
2023-01-11T21:01:20.050Z,84.48
2023-01-11T21:04:23.011Z,84.63
2023-01-11T21:07:26.186Z,84.76
2023-01-11T21:10:29.288Z,84.86
2023-01-11T21:13:39.338Z,85.16
2023-01-11T21:16:44.411Z,85.35
2023-01-11T21:19:47.804Z,85.20
2023-01-11T21:22:50.933Z,85.58
2023-01-11T21:25:53.843Z,85.28
2023-01-11T21:28:59.191Z,85.45
2023-01-11T21:32:03.690Z,85.32
2023-01-11T21:35:07.499Z,85.58
2023-01-11T21:38:13.154Z,85.16
2023-01-11T21:41:18.000Z,85.15
2023-01-11T21:44:27.419Z,85.19
2023-01-11T21:47:31.572Z,85.14
2023-01-11T21:50:36.542Z,84.92
2023-01-11T21:53:39.243Z,84.88
2023-01-11T21:56:42.701Z,84.91
2023-01-11T21:59:45.337Z,84.86
2023-01-11T22:02:52.317Z,84.52
2023-01-11T22:06:00.903Z,84.90
2023-01-11T22:09:04.083Z,84.81
2023-01-11T22:12:07.420Z,84.32
2023-01-11T22:15:11.127Z,84.72
2023-01-11T22:18:15.353Z,84.70
2023-01-11T22:21:19.664Z,84.80
2023-01-11T22:24:29.624Z,84.50
2023-01-11T22:27:32.398Z,83.98
2023-01-11T22:30:35.150Z,84.24
2023-01-11T22:33:39.246Z,84.11
2023-01-11T22:36:42.727Z,84.22
2023-01-11T22:39:45.375Z,84.04
2023-01-11T22:42:48.102Z,83.51
2023-01-11T22:45:57.754Z,83.26
2023-01-11T22:49:01.911Z,82.93
2023-01-11T22:52:06.597Z,82.86
2023-01-11T22:55:10.144Z,83.36
2023-01-11T22:58:12.977Z,83.48
2023-01-11T23:01:17.187Z,82.64
2023-01-11T23:04:23.415Z,82.95
2023-01-11T23:07:26.150Z,82.69
2023-01-11T23:10:28.803Z,82.52
2023-01-11T23:13:49.077Z,83.04
2023-01-11T23:16:51.894Z,82.53
2023-01-11T23:20:02.077Z,82.82
2023-01-11T23:23:04.884Z,82.33
2023-01-11T23:26:08.092Z,81.91
2023-01-11T23:29:10.898Z,81.96
2023-01-11T23:32:19.624Z,82.29
2023-01-11T23:35:23.782Z,82.01
2023-01-11T23:38:33.614Z,82.30
2023-01-11T23:41:54.062Z,82.51
2023-01-11T23:45:00.023Z,82.36
2023-01-11T23:48:05.660Z,82.31
2023-01-11T23:51:12.238Z,82.42
2023-01-11T23:54:15.256Z,82.23
2023-01-11T23:57:21.913Z,82.05
